createdAt,value
2023-01-09T00:02:05.762Z,53.41
2023-01-09T00:07:09.327Z,54.02
2023-01-09T00:12:14.991Z,52.73
2023-01-09T00:17:19.757Z,52.60
2023-01-09T00:22:25.495Z,52.93
2023-01-09T00:27:31.554Z,53.26
2023-01-09T00:32:36.336Z,52.38
2023-01-09T00:37:41.932Z,62.75
2023-01-09T00:42:48.971Z,51.82
2023-01-09T00:47:59.723Z,53.16
2023-01-09T00:53:08.990Z,51.96
2023-01-09T00:58:12.738Z,52.27
2023-01-09T01:03:19.689Z,51.14
2023-01-09T01:08:28.839Z,51.37
2023-01-09T01:13:34.354Z,49.96
2023-01-09T01:18:43.854Z,47.20
2023-01-09T01:23:52.165Z,47.62
2023-01-09T01:28:59.363Z,48.02
2023-01-09T01:34:06.257Z,48.77
2023-01-09T01:39:13.023Z,50.62
2023-01-09T01:44:35.258Z,49.53
2023-01-09T01:49:40.032Z,49.18
2023-01-09T01:54:44.666Z,49.13
2023-01-09T01:59:55.582Z,49.35
2023-01-09T02:05:02.831Z,47.86
2023-01-09T02:10:06.874Z,43.23
2023-01-09T02:15:12.933Z,43.28
2023-01-09T02:20:31.292Z,42.68
2023-01-09T02:25:49.316Z,43.42
2023-01-09T02:31:02.328Z,42.44
2023-01-09T02:36:23.781Z,44.40
2023-01-09T02:41:37.593Z,43.33
2023-01-09T02:46:42.383Z,41.22
2023-01-09T02:51:52.203Z,41.74
2023-01-09T02:57:13.907Z,41.45
2023-01-09T03:02:41.535Z,44.60
2023-01-09T03:07:49.518Z,44.53
2023-01-09T03:13:01.134Z,47.29
2023-01-09T03:18:11.494Z,45.73
2023-01-09T03:23:14.904Z,47.83
2023-01-09T03:28:26.384Z,44.59
2023-01-09T03:33:33.100Z,42.23
2023-01-09T03:38:36.711Z,46.61
2023-01-09T03:43:40.148Z,39.29
2023-01-09T03:48:44.984Z,39.74
2023-01-09T03:53:48.372Z,39.81
2023-01-09T03:58:53.384Z,41.73
2023-01-09T04:03:58.296Z,41.19
2023-01-09T04:09:03.996Z,41.19
2023-01-09T04:14:07.480Z,40.78
2023-01-09T04:19:12.410Z,39.36
2023-01-09T04:24:15.890Z,40.40
2023-01-09T04:29:19.431Z,40.75
2023-01-09T04:34:25.719Z,39.59
2023-01-09T04:39:29.177Z,38.87
2023-01-09T04:44:32.653Z,38.75
2023-01-09T04:49:37.668Z,37.94
2023-01-09T04:54:41.120Z,50.08
2023-01-09T04:59:46.783Z,39.39
2023-01-09T05:04:51.653Z,39.23
2023-01-09T05:09:55.159Z,38.37
2023-01-09T05:14:58.927Z,38.37
2023-01-09T05:20:03.697Z,36.49
2023-01-09T05:25:07.575Z,36.76
2023-01-09T05:30:14.709Z,35.88
2023-01-09T05:35:21.331Z,37.35
2023-01-09T05:40:29.103Z,41.80
2023-01-09T05:45:40.663Z,40.97
2023-01-09T05:50:45.531Z,41.09
2023-01-09T05:55:49.002Z,43.20
2023-01-09T06:00:55.476Z,40.77
2023-01-09T06:06:00.363Z,41.99
2023-01-09T06:11:03.895Z,40.98
2023-01-09T06:16:10.085Z,40.07
2023-01-09T06:21:17.190Z,40.03
2023-01-09T06:26:23.750Z,40.09
2023-01-09T06:31:27.574Z,50.89
2023-01-09T06:36:32.625Z,42.47
2023-01-09T06:41:37.253Z,40.94
2023-01-09T06:46:42.170Z,50.36
2023-01-09T06:51:47.068Z,41.02
2023-01-09T06:56:53.114Z,43.04
2023-01-09T07:01:57.108Z,40.97
2023-01-09T07:07:05.168Z,37.10
2023-01-09T07:12:08.815Z,35.32
2023-01-09T07:17:13.404Z,36.18
2023-01-09T07:22:18.412Z,34.94
2023-01-09T07:27:24.552Z,38.13
2023-01-09T07:32:28.235Z,40.07
2023-01-09T07:37:33.222Z,41.64
2023-01-09T07:42:36.716Z,36.54
2023-01-09T07:47:40.775Z,35.34
2023-01-09T07:52:48.839Z,37.75
2023-01-09T07:57:53.160Z,38.46
2023-01-09T08:02:56.833Z,36.84
2023-01-09T08:08:02.070Z,35.49
2023-01-09T08:13:05.735Z,35.37
2023-01-09T08:18:09.455Z,36.35
2023-01-09T08:23:16.918Z,35.87
2023-01-09T08:28:20.399Z,35.21
2023-01-09T08:33:24.252Z,34.80
2023-01-09T08:38:29.156Z,36.17
2023-01-09T08:43:52.163Z,34.14
2023-01-09T08:48:57.952Z,38.08
2023-01-09T08:54:02.794Z,38.13
2023-01-09T08:59:08.580Z,34.48
2023-01-09T09:04:12.160Z,36.79
2023-01-09T09:09:19.474Z,36.75
2023-01-09T09:14:40.002Z,36.74
2023-01-09T09:19:43.791Z,37.26
2023-01-09T09:24:48.971Z,37.00
2023-01-09T09:29:52.480Z,39.07
2023-01-09T09:34:56.027Z,36.83
2023-01-09T09:40:09.758Z,37.98
2023-01-09T09:45:38.410Z,37.83
2023-01-09T09:50:59.732Z,37.63
2023-01-09T09:56:06.131Z,37.57
2023-01-09T10:01:16.510Z,37.64
2023-01-09T10:06:28.674Z,36.18
2023-01-09T10:11:39.547Z,44.85
2023-01-09T10:16:54.270Z,42.20
2023-01-09T10:22:08.394Z,37.63
2023-01-09T10:27:18.526Z,36.59
2023-01-09T10:32:35.935Z,36.23
2023-01-09T10:37:43.533Z,37.87
2023-01-09T10:42:52.732Z,35.90
2023-01-09T10:48:14.977Z,35.18
2023-01-09T10:53:22.797Z,35.68
2023-01-09T10:58:28.892Z,34.88
2023-01-09T11:03:32.400Z,37.20
2023-01-09T11:08:40.221Z,36.76
2023-01-09T11:13:48.642Z,37.87
2023-01-09T11:18:56.292Z,37.79
2023-01-09T11:24:23.936Z,38.24
2023-01-09T11:29:31.332Z,45.02
2023-01-09T11:34:39.142Z,39.49
2023-01-09T11:39:48.169Z,37.55
2023-01-09T11:45:01.611Z,36.06
2023-01-09T11:50:18.765Z,38.05
2023-01-09T11:55:29.356Z,40.04
2023-01-09T12:00:44.694Z,38.91
2023-01-09T12:05:54.420Z,39.97
2023-01-09T12:11:24.362Z,38.41
2023-01-09T12:16:34.700Z,38.15
2023-01-09T12:21:45.819Z,47.16
2023-01-09T12:27:00.701Z,41.41
2023-01-09T12:32:16.664Z,38.42
2023-01-09T12:37:49.515Z,38.28
2023-01-09T12:43:01.628Z,38.60
2023-01-09T12:48:14.630Z,44.48
2023-01-09T12:53:27.062Z,38.73
2023-01-09T12:58:34.661Z,40.91
2023-01-09T13:03:50.141Z,39.61
2023-01-09T13:08:58.311Z,33.99
2023-01-09T13:14:06.627Z,32.58
2023-01-09T13:19:18.020Z,35.04
2023-01-09T13:24:25.490Z,32.98
2023-01-09T13:29:32.565Z,32.49
2023-01-09T13:34:40.749Z,31.95
2023-01-09T13:39:44.191Z,32.15
2023-01-09T13:44:49.551Z,31.63
2023-01-09T13:50:07.152Z,32.72
2023-01-09T13:55:28.852Z,31.32
2023-01-09T14:00:51.101Z,32.55
2023-01-09T14:06:13.054Z,39.36
2023-01-09T14:11:27.486Z,31.55
2023-01-09T14:16:32.331Z,30.79
2023-01-09T14:21:46.665Z,30.85
2023-01-09T14:26:56.444Z,30.22
2023-01-09T14:32:18.195Z,32.30
2023-01-09T14:37:28.449Z,37.13
2023-01-09T14:42:33.497Z,46.73
2023-01-09T14:47:40.934Z,33.37
2023-01-09T14:52:49.888Z,31.89
2023-01-09T14:57:57.060Z,31.91
2023-01-09T15:03:04.261Z,31.86
2023-01-09T15:08:09.310Z,31.92
2023-01-09T15:13:17.906Z,32.12
2023-01-09T15:18:32.168Z,37.29
2023-01-09T15:23:39.623Z,38.46
2023-01-09T15:28:47.919Z,37.09
2023-01-09T15:33:54.029Z,38.45
2023-01-09T15:38:59.633Z,46.36
2023-01-09T15:44:04.730Z,38.66
2023-01-09T15:49:12.439Z,40.01
2023-01-09T15:54:18.684Z,38.44
2023-01-09T15:59:27.188Z,40.04
2023-01-09T16:04:30.743Z,38.28
2023-01-09T16:09:37.874Z,46.67
2023-01-09T16:14:46.561Z,52.14
2023-01-09T16:19:56.072Z,44.71
2023-01-09T16:25:03.070Z,42.23
2023-01-09T16:30:21.119Z,46.95
2023-01-09T16:35:27.528Z,45.55
2023-01-09T16:40:36.130Z,44.04
2023-01-09T16:45:41.889Z,40.23
2023-01-09T16:50:48.207Z,42.09
2023-01-09T16:55:59.538Z,41.57
2023-01-09T17:01:06.893Z,53.25
2023-01-09T17:06:16.990Z,48.74
2023-01-09T17:11:31.472Z,46.10
2023-01-09T17:16:39.087Z,45.12
2023-01-09T17:21:46.467Z,47.35
2023-01-09T17:27:09.535Z,63.32
2023-01-09T17:32:19.413Z,44.81
2023-01-09T17:37:24.571Z,45.62
2023-01-09T17:42:34.606Z,47.86
2023-01-09T17:47:40.562Z,45.07
2023-01-09T17:52:44.173Z,44.93
2023-01-09T17:57:53.727Z,44.60
2023-01-09T18:03:00.043Z,51.15
2023-01-09T18:08:15.451Z,49.65
2023-01-09T18:13:21.645Z,58.24
2023-01-09T18:18:28.426Z,49.07
2023-01-09T18:23:40.812Z,61.11
2023-01-09T18:28:56.292Z,51.94
2023-01-09T18:34:02.525Z,52.21
2023-01-09T18:39:08.197Z,55.36
2023-01-09T18:44:22.166Z,51.94
2023-01-09T18:49:28.105Z,48.85
2023-01-09T18:54:38.173Z,50.16
2023-01-09T18:59:50.428Z,68.23
2023-01-09T19:04:56.252Z,52.46
2023-01-09T19:10:01.974Z,49.93
2023-01-09T19:15:11.001Z,48.57
2023-01-09T19:20:14.881Z,55.44
2023-01-09T19:25:22.560Z,44.52
2023-01-09T19:30:27.687Z,56.05
2023-01-09T19:35:33.421Z,44.59
2023-01-09T19:40:37.091Z,43.02
2023-01-09T19:45:43.435Z,43.04
2023-01-09T19:50:56.466Z,54.71
2023-01-09T19:56:23.347Z,64.99
2023-01-09T20:02:11.379Z,49.65
2023-01-09T20:13:04.614Z,41.83
2023-01-09T20:18:11.675Z,32.91
2023-01-09T20:23:16.864Z,32.33
2023-01-09T20:28:20.850Z,31.82
2023-01-09T20:33:28.436Z,33.85
2023-01-09T20:38:31.970Z,31.79
2023-01-09T20:43:36.097Z,34.59
2023-01-09T20:48:43.474Z,33.84
2023-01-09T20:53:47.639Z,36.25
2023-01-09T20:58:51.166Z,35.30
2023-01-09T21:03:57.530Z,36.75
2023-01-09T21:09:01.019Z,36.25
2023-01-09T21:14:04.760Z,35.37
2023-01-09T21:19:10.092Z,36.07
2023-01-09T21:24:13.527Z,38.53
2023-01-09T21:29:17.092Z,37.28
2023-01-09T21:34:24.579Z,39.59
2023-01-09T21:39:30.437Z,37.48
2023-01-09T21:44:54.131Z,37.86
2023-01-09T21:49:59.030Z,38.16
2023-01-09T21:55:02.521Z,40.58
2023-01-09T22:00:08.937Z,40.65
2023-01-09T22:05:16.668Z,42.08
2023-01-09T22:10:23.282Z,50.55
2023-01-09T22:15:26.753Z,49.33
2023-01-09T22:20:33.733Z,49.45
2023-01-09T22:25:38.554Z,49.12
2023-01-09T22:30:42.572Z,48.13
2023-01-09T22:35:47.378Z,48.21
2023-01-09T22:40:51.574Z,47.97
2023-01-09T22:45:59.776Z,47.01
2023-01-09T22:51:08.288Z,46.55
2023-01-09T22:56:17.941Z,47.89
2023-01-09T23:01:24.043Z,47.72
2023-01-09T23:06:28.838Z,48.32
2023-01-09T23:11:50.381Z,46.03
2023-01-09T23:16:56.057Z,43.84
2023-01-09T23:22:01.739Z,42.54
2023-01-09T23:27:05.478Z,45.04
2023-01-09T23:32:12.160Z,46.29
2023-01-09T23:37:17.139Z,48.60
2023-01-09T23:42:38.329Z,45.50
2023-01-09T23:47:41.897Z,45.61
2023-01-09T23:52:49.108Z,47.65
2023-01-09T23:57:54.648Z,44.15
